createdAt,value
2018-06-04T00:00:24.207Z,60.83
2018-06-04T00:02:53.346Z,61.00
2018-06-04T00:05:22.737Z,61.43
2018-06-04T00:07:51.866Z,60.88
2018-06-04T00:10:21.015Z,62.05
2018-06-04T00:12:50.157Z,61.92
2018-06-04T00:15:19.338Z,61.40
2018-06-04T00:17:48.496Z,61.59
2018-06-04T00:20:17.648Z,61.54
2018-06-04T00:22:46.788Z,62.23
2018-06-04T00:25:16.214Z,62.67
2018-06-04T00:27:45.369Z,63.22
2018-06-04T00:30:14.518Z,62.21
2018-06-04T00:32:43.654Z,62.02
2018-06-04T00:35:12.785Z,62.54
2018-06-04T00:37:42.274Z,62.72
2018-06-04T00:40:11.398Z,62.78
2018-06-04T00:42:40.549Z,62.66
2018-06-04T00:45:09.723Z,63.55
2018-06-04T00:47:38.851Z,63.50
2018-06-04T00:50:08.003Z,62.93
2018-06-04T00:52:37.132Z,62.26
2018-06-04T00:55:06.354Z,62.72
2018-06-04T00:57:35.495Z,63.09
2018-06-04T01:00:05.522Z,62.96
2018-06-04T01:02:34.658Z,62.88
2018-06-04T01:05:03.790Z,62.97
2018-06-04T01:07:33.017Z,63.01
2018-06-04T01:10:02.158Z,63.60
2018-06-04T01:12:31.394Z,63.98
2018-06-04T01:15:00.534Z,62.61
2018-06-04T01:17:29.686Z,64.14
2018-06-04T01:19:58.865Z,63.31
2018-06-04T01:22:28.105Z,63.26
2018-06-04T01:24:57.282Z,63.72
2018-06-04T01:27:26.442Z,62.98
2018-06-04T01:29:55.614Z,63.86
2018-06-04T01:32:24.786Z,64.04
2018-06-04T01:34:53.975Z,64.29
2018-06-04T01:37:23.178Z,63.90
2018-06-04T01:39:52.338Z,63.52
2018-06-04T01:42:21.519Z,64.08
2018-06-04T01:44:50.690Z,62.86
2018-06-04T01:47:19.862Z,63.79
2018-06-04T01:49:49.347Z,64.12
2018-06-04T01:52:18.501Z,63.49
2018-06-04T01:54:47.666Z,63.97
2018-06-04T01:57:16.847Z,63.93
2018-06-04T01:59:46.006Z,63.90
2018-06-04T02:02:15.171Z,63.40
2018-06-04T02:04:44.335Z,63.73
2018-06-04T02:07:13.490Z,63.71
2018-06-04T02:09:42.667Z,64.69
2018-06-04T02:12:11.822Z,64.24
2018-06-04T02:14:41.004Z,64.64
2018-06-04T02:17:10.254Z,65.06
2018-06-04T02:19:39.414Z,65.21
2018-06-04T02:22:08.578Z,65.20
2018-06-04T02:24:37.751Z,65.04
2018-06-04T02:27:06.906Z,64.82
2018-06-04T02:29:36.086Z,65.45
2018-06-04T02:32:05.401Z,65.77
2018-06-04T02:34:34.401Z,65.77
2018-06-04T02:37:03.555Z,64.99
2018-06-04T02:39:32.995Z,65.07
2018-06-04T02:42:02.158Z,64.88
2018-06-04T02:44:31.311Z,65.15
2018-06-04T02:47:00.483Z,65.03
2018-06-04T02:49:29.654Z,65.35
2018-06-04T02:51:58.814Z,65.75
2018-06-04T02:54:27.971Z,65.26
2018-06-04T02:56:57.137Z,65.74
2018-06-04T02:59:26.322Z,65.68
2018-06-04T03:01:55.482Z,65.76
2018-06-04T03:04:24.638Z,66.43
2018-06-04T03:06:53.794Z,66.55
2018-06-04T03:09:22.966Z,65.58
2018-06-04T03:11:52.231Z,65.79
2018-06-04T03:14:21.416Z,66.53
2018-06-04T03:16:50.578Z,67.00
2018-06-04T03:19:19.734Z,66.67
2018-06-04T03:21:48.922Z,66.29
2018-06-04T03:24:18.077Z,67.11
2018-06-04T03:26:47.239Z,66.66
2018-06-04T03:29:16.409Z,66.12
2018-06-04T03:31:45.575Z,66.75
2018-06-04T03:34:14.750Z,67.19
2018-06-04T03:36:43.910Z,67.34
2018-06-04T03:39:13.097Z,67.34
2018-06-04T03:41:42.257Z,66.79
2018-06-04T03:44:11.423Z,67.22
2018-06-04T03:46:40.594Z,67.64
2018-06-04T03:49:10.022Z,66.94
2018-06-04T03:51:39.207Z,67.12
2018-06-04T03:54:08.366Z,67.50
2018-06-04T03:56:37.554Z,67.25
2018-06-04T03:59:06.739Z,67.16
2018-06-04T04:01:35.890Z,67.50
2018-06-04T04:04:05.411Z,67.97
2018-06-04T04:06:34.570Z,66.95
2018-06-04T04:09:04.319Z,67.42
2018-06-04T04:11:33.506Z,68.17
2018-06-04T04:14:02.687Z,68.02
2018-06-04T04:16:31.835Z,67.37
2018-06-04T04:19:01.033Z,67.59
2018-06-04T04:21:30.232Z,67.79
2018-06-04T04:23:59.374Z,67.99
2018-06-04T04:26:28.525Z,67.54
2018-06-04T04:28:57.982Z,67.24
2018-06-04T04:31:27.131Z,67.97
2018-06-04T04:33:56.287Z,67.45
2018-06-04T04:36:25.457Z,67.62
2018-06-04T04:38:54.630Z,67.26
2018-06-04T04:41:23.798Z,67.29
2018-06-04T04:43:52.978Z,66.87
2018-06-04T04:46:22.149Z,66.86
2018-06-04T04:48:51.306Z,66.87
2018-06-04T04:51:20.486Z,66.97
2018-06-04T04:53:49.646Z,67.16
2018-06-04T04:56:19.280Z,66.20
2018-06-04T04:58:48.475Z,66.53
2018-06-04T05:01:17.669Z,66.81
2018-06-04T05:03:46.856Z,66.36
2018-06-04T05:06:16.010Z,66.62
2018-06-04T05:08:45.430Z,66.64
2018-06-04T05:11:14.587Z,66.76
2018-06-04T05:13:43.755Z,65.80
2018-06-04T05:16:12.919Z,65.91
2018-06-04T05:18:42.099Z,66.67
2018-06-04T05:21:11.266Z,67.09
2018-06-04T05:23:40.625Z,66.41
2018-06-04T05:26:09.786Z,66.45
2018-06-04T05:28:38.961Z,65.51
2018-06-04T05:31:08.115Z,66.22
2018-06-04T05:33:37.288Z,65.08
2018-06-04T05:36:06.593Z,65.36
2018-06-04T05:38:35.752Z,66.07
2018-06-04T05:41:05.151Z,65.86
2018-06-04T05:43:34.317Z,66.19
2018-06-04T05:46:03.479Z,65.38
2018-06-04T05:48:32.667Z,65.72
2018-06-04T05:51:01.843Z,65.15
2018-06-04T05:53:31.062Z,65.33
2018-06-04T05:56:00.222Z,64.71
2018-06-04T05:58:29.405Z,66.18
2018-06-04T06:00:58.566Z,65.84
2018-06-04T06:03:34.021Z,65.43
2018-06-04T06:06:03.403Z,64.94
2018-06-04T06:08:32.555Z,64.43
2018-06-04T06:11:01.570Z,64.23
2018-06-04T06:13:30.737Z,63.87
2018-06-04T06:15:59.912Z,64.92
2018-06-04T06:18:29.062Z,63.70
2018-06-04T06:20:58.238Z,64.10
2018-06-04T06:23:27.410Z,63.32
2018-06-04T06:25:56.588Z,64.82
2018-06-04T06:28:26.016Z,65.02
2018-06-04T06:30:55.272Z,64.12
2018-06-04T06:33:24.371Z,64.39
2018-06-04T06:35:53.746Z,64.21
2018-06-04T06:38:22.918Z,63.85
2018-06-04T06:40:52.098Z,64.43
2018-06-04T06:43:21.642Z,64.94
2018-06-04T06:45:50.803Z,65.76
2018-06-04T06:48:19.970Z,65.62
2018-06-04T06:50:49.546Z,66.05
2018-06-04T06:53:18.758Z,64.71
2018-06-04T06:55:47.918Z,64.58
2018-06-04T06:58:17.110Z,64.46
2018-06-04T07:00:46.279Z,64.17
2018-06-04T07:03:15.457Z,64.87
2018-06-04T07:05:44.678Z,64.00
2018-06-04T07:08:13.834Z,64.53
2018-06-04T07:10:43.003Z,64.90
2018-06-04T07:13:12.198Z,65.19
2018-06-04T07:15:41.367Z,62.88
2018-06-04T07:18:10.530Z,62.18
2018-06-04T07:20:39.757Z,62.38
2018-06-04T07:23:08.931Z,65.42
2018-06-04T07:25:38.106Z,65.43
2018-06-04T07:28:07.268Z,62.46
2018-06-04T07:30:36.435Z,62.15
2018-06-04T07:33:05.662Z,62.19
2018-06-04T07:35:34.818Z,62.95
2018-06-04T07:38:03.994Z,59.80
2018-06-04T07:40:33.163Z,61.52
2018-06-04T07:43:02.299Z,60.96
2018-06-04T07:45:31.485Z,59.26
2018-06-04T07:48:00.641Z,58.05
2018-06-04T07:50:29.778Z,57.94
2018-06-04T07:52:58.926Z,57.72
2018-06-04T07:55:28.062Z,59.46
2018-06-04T07:57:56.989Z,60.25
2018-06-04T08:00:26.185Z,60.57
2018-06-04T08:02:55.308Z,59.04
2018-06-04T08:05:24.450Z,58.47
2018-06-04T08:07:53.594Z,58.75
2018-06-04T08:10:22.869Z,58.22
2018-06-04T08:12:51.961Z,55.92
2018-06-04T08:15:21.094Z,56.28
2018-06-04T08:17:50.239Z,55.35
2018-06-04T08:20:19.379Z,55.35
2018-06-04T08:22:48.515Z,57.25
2018-06-04T08:25:17.863Z,58.03
2018-06-04T08:27:47.052Z,56.79
2018-06-04T08:30:16.258Z,57.97
2018-06-04T08:32:45.430Z,57.62
2018-06-04T08:35:14.598Z,57.70
2018-06-04T08:37:44.545Z,57.88
2018-06-04T08:40:13.767Z,57.87
2018-06-04T08:42:42.918Z,56.76
2018-06-04T08:45:12.087Z,59.57
2018-06-04T08:47:41.303Z,55.88
2018-06-04T08:50:10.475Z,57.49
2018-06-04T08:52:39.638Z,57.97
2018-06-04T08:55:09.123Z,58.26
2018-06-04T08:57:38.282Z,57.07
2018-06-04T09:00:07.442Z,55.64
2018-06-04T09:02:36.623Z,56.51
2018-06-04T09:05:05.886Z,58.18
2018-06-04T09:07:35.042Z,55.18
2018-06-04T09:10:04.283Z,54.28
2018-06-04T09:12:33.453Z,57.03
2018-06-04T09:15:02.651Z,54.60
2018-06-04T09:17:31.814Z,52.86
2018-06-04T09:20:01.202Z,54.56
2018-06-04T09:22:30.222Z,51.75
2018-06-04T09:24:59.378Z,54.69
2018-06-04T09:27:28.314Z,53.65
2018-06-04T09:29:57.482Z,53.68
2018-06-04T09:32:26.634Z,54.80
2018-06-04T09:34:55.770Z,53.91
2018-06-04T09:37:24.982Z,51.90
2018-06-04T09:39:54.151Z,51.69
2018-06-04T09:42:23.290Z,53.39
2018-06-04T09:44:52.441Z,52.11
2018-06-04T09:47:21.658Z,50.15
2018-06-04T09:49:50.833Z,50.58
2018-06-04T09:52:19.987Z,49.77
2018-06-04T09:54:49.150Z,50.80
2018-06-04T09:57:18.357Z,50.98
2018-06-04T09:59:47.531Z,50.29
2018-06-04T10:02:16.699Z,48.81
2018-06-04T10:04:45.931Z,48.52
2018-06-04T10:07:15.032Z,46.37
2018-06-04T10:09:44.200Z,49.29
2018-06-04T10:12:13.379Z,48.22
2018-06-04T10:14:42.579Z,48.53
2018-06-04T10:17:11.743Z,47.58
2018-06-04T10:19:40.899Z,46.26
2018-06-04T10:22:10.070Z,46.81
2018-06-04T10:24:39.347Z,45.81
2018-06-04T10:27:08.593Z,43.51
2018-06-04T10:29:37.774Z,45.80
2018-06-04T10:32:06.946Z,43.56
2018-06-04T10:34:36.126Z,44.56
2018-06-04T10:37:05.279Z,43.91
2018-06-04T10:39:34.447Z,43.61
2018-06-04T10:42:03.622Z,45.22
2018-06-04T10:44:32.839Z,39.23
2018-06-04T10:47:02.007Z,43.05
2018-06-04T10:49:31.156Z,42.28
2018-06-04T10:52:00.286Z,42.82
2018-06-04T10:54:29.436Z,42.48
2018-06-04T10:56:58.595Z,44.21
2018-06-04T10:59:27.731Z,41.58
2018-06-04T11:01:57.134Z,42.43
2018-06-04T11:04:26.270Z,42.53
2018-06-04T11:06:55.188Z,42.04
2018-06-04T11:09:24.335Z,43.43
2018-06-04T11:11:53.470Z,42.40
2018-06-04T11:14:22.614Z,42.91
2018-06-04T11:16:51.746Z,42.42
2018-06-04T11:19:20.890Z,41.57
2018-06-04T11:21:50.024Z,41.90
2018-06-04T11:24:19.170Z,41.74
2018-06-04T11:26:48.322Z,40.94
2018-06-04T11:29:17.481Z,43.82
2018-06-04T11:31:46.630Z,42.98
2018-06-04T11:34:15.778Z,40.60
2018-06-04T11:36:44.920Z,40.05
2018-06-04T11:39:14.069Z,40.66
2018-06-04T11:41:43.254Z,40.44
2018-06-04T11:44:12.423Z,38.98
2018-06-04T11:46:41.599Z,39.96
2018-06-04T11:49:10.758Z,39.53
2018-06-04T11:51:39.923Z,41.29
2018-06-04T11:54:09.096Z,39.78
2018-06-04T11:56:38.272Z,40.78
2018-06-04T11:59:07.423Z,43.14
2018-06-04T12:01:36.728Z,39.08
2018-06-04T12:04:05.889Z,38.54
2018-06-04T12:06:35.067Z,41.21
2018-06-04T12:09:06.353Z,41.95
2018-06-04T12:11:35.776Z,40.10
2018-06-04T12:14:04.677Z,39.03
2018-06-04T12:16:33.859Z,39.13
2018-06-04T12:19:03.033Z,40.28
2018-06-04T12:21:32.197Z,40.67
2018-06-04T12:24:01.368Z,36.89
2018-06-04T12:26:30.562Z,37.16
2018-06-04T12:28:59.732Z,41.02
2018-06-04T12:31:28.937Z,38.68
2018-06-04T12:33:58.113Z,37.95
2018-06-04T12:36:27.286Z,37.72
2018-06-04T12:38:56.449Z,37.24
2018-06-04T12:41:25.633Z,36.40
2018-06-04T12:43:54.794Z,36.69
2018-06-04T12:46:23.953Z,36.57
2018-06-04T12:48:53.119Z,38.15
2018-06-04T12:51:22.293Z,38.07
2018-06-04T12:53:51.454Z,38.57
2018-06-04T12:56:20.629Z,35.24
2018-06-04T12:58:49.782Z,37.83
2018-06-04T13:01:18.985Z,37.60
2018-06-04T13:03:48.146Z,35.99
2018-06-04T13:06:17.315Z,36.75
2018-06-04T13:08:46.499Z,34.64
2018-06-04T13:11:15.629Z,35.55
2018-06-04T13:13:44.769Z,36.32
2018-06-04T13:16:13.925Z,35.13
2018-06-04T13:18:43.062Z,36.84
2018-06-04T13:21:12.226Z,34.38
2018-06-04T13:23:41.553Z,36.44
2018-06-04T13:26:10.685Z,36.16
2018-06-04T13:28:39.833Z,36.13
2018-06-04T13:31:09.015Z,34.29
2018-06-04T13:33:38.175Z,36.02
2018-06-04T13:36:07.283Z,34.92
2018-06-04T13:38:36.429Z,36.25
2018-06-04T13:41:05.349Z,36.75
2018-06-04T13:43:34.491Z,37.86
2018-06-04T13:46:03.679Z,38.58
2018-06-04T13:48:32.850Z,38.23
2018-06-04T13:51:02.005Z,36.52
2018-06-04T13:53:31.174Z,37.73
2018-06-04T13:56:00.357Z,37.91
2018-06-04T13:58:29.522Z,38.07
2018-06-04T14:00:58.936Z,37.15
2018-06-04T14:03:28.106Z,37.51
2018-06-04T14:05:57.273Z,37.15
2018-06-04T14:08:26.453Z,36.97
2018-06-04T14:10:55.622Z,37.30
2018-06-04T14:13:24.785Z,36.46
2018-06-04T14:15:53.953Z,36.02
2018-06-04T14:18:23.137Z,37.71
2018-06-04T14:20:52.297Z,38.43
2018-06-04T14:23:21.472Z,37.46
2018-06-04T14:25:50.645Z,37.53
2018-06-04T14:28:19.817Z,36.63
2018-06-04T14:30:49.153Z,35.71
2018-06-04T14:33:18.309Z,35.76
2018-06-04T14:35:47.781Z,36.62
2018-06-04T14:38:16.954Z,37.89
2018-06-04T14:40:46.138Z,37.70
2018-06-04T14:43:15.477Z,36.54
2018-06-04T14:45:44.632Z,36.95
2018-06-04T14:48:14.990Z,37.68
2018-06-04T14:50:45.197Z,37.89
2018-06-04T14:53:14.323Z,36.81
2018-06-04T14:55:43.477Z,36.90
2018-06-04T14:58:12.607Z,37.56
2018-06-04T15:00:41.758Z,39.09
2018-06-04T15:03:10.881Z,39.48
2018-06-04T15:05:40.042Z,37.90
2018-06-04T15:08:09.161Z,38.49
2018-06-04T15:10:38.302Z,39.53
2018-06-04T15:13:07.460Z,39.07
2018-06-04T15:15:36.701Z,40.13
2018-06-04T15:18:05.854Z,39.83
2018-06-04T15:20:35.023Z,38.75
2018-06-04T15:23:04.179Z,40.91
2018-06-04T15:25:33.573Z,40.06
2018-06-04T15:28:02.746Z,38.77
2018-06-04T15:30:31.906Z,40.20
2018-06-04T15:33:01.086Z,39.78
2018-06-04T15:35:30.246Z,38.30
2018-06-04T15:37:59.572Z,39.70
2018-06-04T15:40:28.725Z,39.94
2018-06-04T15:42:57.890Z,38.87
2018-06-04T15:45:27.053Z,39.86
2018-06-04T15:47:56.276Z,40.32
2018-06-04T15:50:25.463Z,40.64
2018-06-04T15:52:54.589Z,39.47
2018-06-04T15:55:23.761Z,38.27
2018-06-04T15:57:52.938Z,39.50
2018-06-04T16:00:22.105Z,39.24
2018-06-04T16:02:51.281Z,39.75
2018-06-04T16:05:20.563Z,39.49
2018-06-04T16:07:49.706Z,37.72
2018-06-04T16:10:18.958Z,38.28
2018-06-04T16:12:48.156Z,37.80
2018-06-04T16:15:17.309Z,39.07
2018-06-04T16:17:46.453Z,38.11
2018-06-04T16:20:15.589Z,39.67
2018-06-04T16:22:44.733Z,36.72
2018-06-04T16:25:13.873Z,36.86
2018-06-04T16:27:43.069Z,38.60
2018-06-04T16:30:12.205Z,37.99
2018-06-04T16:32:41.366Z,38.36
2018-06-04T16:35:10.502Z,37.57
2018-06-04T16:37:39.416Z,37.39
2018-06-04T16:40:08.819Z,37.57
2018-06-04T16:42:37.955Z,37.37
2018-06-04T16:45:07.131Z,36.46
2018-06-04T16:47:36.225Z,37.20
2018-06-04T16:50:05.447Z,36.50
2018-06-04T16:52:34.534Z,36.95
2018-06-04T16:55:03.686Z,36.67
2018-06-04T16:57:32.830Z,36.23
2018-06-04T17:00:01.970Z,35.33
2018-06-04T17:02:31.126Z,36.08
2018-06-04T17:05:00.257Z,37.29
2018-06-04T17:07:29.189Z,37.35
2018-06-04T17:09:58.346Z,36.82
2018-06-04T17:12:27.473Z,37.01
2018-06-04T17:14:56.602Z,35.91
2018-06-04T17:17:25.755Z,36.65
2018-06-04T17:19:54.916Z,37.61
2018-06-04T17:22:24.046Z,37.74
2018-06-04T17:24:53.181Z,37.25
2018-06-04T17:27:22.325Z,37.13
2018-06-04T17:29:51.495Z,36.21
2018-06-04T17:32:20.645Z,36.26
2018-06-04T17:34:49.798Z,37.02
2018-06-04T17:37:18.938Z,38.51
2018-06-04T17:39:48.077Z,37.96
2018-06-04T17:42:17.223Z,38.88
2018-06-04T17:44:46.357Z,38.91
2018-06-04T17:47:15.505Z,39.88
2018-06-04T17:49:44.633Z,39.13
2018-06-04T17:52:13.775Z,40.17
2018-06-04T17:54:42.933Z,43.41
2018-06-04T17:57:12.078Z,42.97
2018-06-04T17:59:41.225Z,43.38
2018-06-04T18:02:10.388Z,43.21
2018-06-04T18:04:39.514Z,43.95
2018-06-04T18:07:08.695Z,44.44
2018-06-04T18:09:37.858Z,44.43
2018-06-04T18:12:06.781Z,45.24
2018-06-04T18:14:35.945Z,44.50
2018-06-04T18:17:05.171Z,45.13
2018-06-04T18:19:34.661Z,45.30
2018-06-04T18:22:03.840Z,46.27
2018-06-04T18:24:32.979Z,46.00
2018-06-04T18:27:02.117Z,45.69
2018-06-04T18:29:31.254Z,45.63
2018-06-04T18:32:00.408Z,46.12
2018-06-04T18:34:29.541Z,46.95
2018-06-04T18:36:58.682Z,46.32
2018-06-04T18:39:27.825Z,46.41
2018-06-04T18:41:56.957Z,46.01
2018-06-04T18:44:26.140Z,46.64
2018-06-04T18:46:55.276Z,47.35
2018-06-04T18:49:24.417Z,47.89
2018-06-04T18:51:53.661Z,47.84
2018-06-04T18:54:22.837Z,47.64
2018-06-04T18:56:51.997Z,47.49
2018-06-04T18:59:20.933Z,48.47
2018-06-04T19:01:50.121Z,48.03
2018-06-04T19:04:19.293Z,47.82
2018-06-04T19:06:48.518Z,48.64
2018-06-04T19:09:17.686Z,48.89
2018-06-04T19:11:47.521Z,48.88
2018-06-04T19:14:16.998Z,48.48
2018-06-04T19:16:46.217Z,48.79
2018-06-04T19:19:15.397Z,47.94
2018-06-04T19:21:44.869Z,48.34
2018-06-04T19:24:14.166Z,49.30
2018-06-04T19:26:43.337Z,49.24
2018-06-04T19:29:12.509Z,48.61
2018-06-04T19:31:41.679Z,49.66
2018-06-04T19:34:10.939Z,49.58
2018-06-04T19:36:40.242Z,50.45
2018-06-04T19:39:10.313Z,49.09
2018-06-04T19:41:39.332Z,49.81
2018-06-04T19:44:08.829Z,49.48
2018-06-04T19:46:38.022Z,50.11
2018-06-04T19:49:08.256Z,50.27
2018-06-04T19:51:37.505Z,50.23
2018-06-04T19:54:06.938Z,50.92
2018-06-04T19:56:36.094Z,51.73
2018-06-04T19:59:05.230Z,50.80
2018-06-04T20:01:34.428Z,51.34
2018-06-04T20:04:03.625Z,51.59
2018-06-04T20:06:32.766Z,51.55
2018-06-04T20:09:02.039Z,51.72
2018-06-04T20:11:31.212Z,51.53
2018-06-04T20:14:00.360Z,52.40
2018-06-04T20:16:30.008Z,51.50
2018-06-04T20:18:59.175Z,52.54
2018-06-04T20:21:28.305Z,52.58
2018-06-04T20:23:57.494Z,52.04
2018-06-04T20:26:26.577Z,52.05
2018-06-04T20:28:55.696Z,51.91
2018-06-04T20:31:24.923Z,51.89
2018-06-04T20:33:54.077Z,52.03
2018-06-04T20:36:23.015Z,51.38
2018-06-04T20:38:52.226Z,51.42
2018-06-04T20:41:21.391Z,52.26
2018-06-04T20:43:50.590Z,51.75
2018-06-04T20:46:19.815Z,52.11
2018-06-04T20:48:49.153Z,51.84
2018-06-04T20:51:18.379Z,50.97
2018-06-04T20:53:47.466Z,51.10
2018-06-04T20:56:16.393Z,50.75
2018-06-04T20:58:45.521Z,51.53
2018-06-04T21:01:14.814Z,52.09
2018-06-04T21:03:44.129Z,52.00
2018-06-04T21:06:13.369Z,52.51
2018-06-04T21:08:42.533Z,51.95
2018-06-04T21:11:11.758Z,52.12
2018-06-04T21:13:40.961Z,52.25
2018-06-04T21:16:10.193Z,53.06
2018-06-04T21:18:39.350Z,52.99
2018-06-04T21:21:08.790Z,53.28
2018-06-04T21:23:37.930Z,52.13
2018-06-04T21:26:07.186Z,52.36
2018-06-04T21:28:36.313Z,52.68
2018-06-04T21:31:05.568Z,51.51
2018-06-04T21:33:34.772Z,52.98
2018-06-04T21:36:03.922Z,52.16
2018-06-04T21:38:33.073Z,53.16
2018-06-04T21:41:02.209Z,52.23
2018-06-04T21:43:31.385Z,53.21
2018-06-04T21:46:00.545Z,53.21
2018-06-04T21:48:29.687Z,53.04
2018-06-04T21:50:58.985Z,51.80
2018-06-04T21:53:28.185Z,51.99
2018-06-04T21:55:57.449Z,52.83
2018-06-04T21:58:26.685Z,53.92
2018-06-04T22:00:55.873Z,52.59
2018-06-04T22:03:25.032Z,53.07
2018-06-04T22:05:54.187Z,52.46
2018-06-04T22:08:23.347Z,53.35
2018-06-04T22:10:52.517Z,52.99
2018-06-04T22:13:21.701Z,53.19
2018-06-04T22:15:51.050Z,53.63
2018-06-04T22:18:20.258Z,52.95
2018-06-04T22:20:49.696Z,53.15
2018-06-04T22:23:18.858Z,54.03
2018-06-04T22:25:48.010Z,54.49
2018-06-04T22:28:17.220Z,52.77
2018-06-04T22:30:46.365Z,53.96
2018-06-04T22:33:15.507Z,53.88
2018-06-04T22:35:45.177Z,53.99
2018-06-04T22:38:14.346Z,54.18
2018-06-04T22:40:43.489Z,54.35
2018-06-04T22:43:12.647Z,54.05
2018-06-04T22:45:41.777Z,53.20
2018-06-04T22:48:10.916Z,53.52
2018-06-04T22:50:40.050Z,53.08
2018-06-04T22:53:09.210Z,54.49
2018-06-04T22:55:38.494Z,54.25
2018-06-04T22:58:08.677Z,54.22
2018-06-04T23:00:37.825Z,55.30
2018-06-04T23:03:07.193Z,55.16
2018-06-04T23:05:36.326Z,55.20
2018-06-04T23:08:05.453Z,55.16
2018-06-04T23:10:34.610Z,55.35
2018-06-04T23:13:03.771Z,55.67
2018-06-04T23:15:32.926Z,55.31
2018-06-04T23:18:02.074Z,55.69
2018-06-04T23:20:31.206Z,55.25
2018-06-04T23:23:00.562Z,56.00
2018-06-04T23:25:29.700Z,55.04
2018-06-04T23:27:58.828Z,55.11
2018-06-04T23:30:27.990Z,55.72
2018-06-04T23:32:57.117Z,55.02
2018-06-04T23:35:26.390Z,55.14
2018-06-04T23:37:55.546Z,56.31
2018-06-04T23:40:24.681Z,56.07
2018-06-04T23:54:44.749Z,55.81
2018-06-04T23:57:13.897Z,55.88
2018-06-04T23:59:43.062Z,55.67
